Date,TemperatureHighF,TemperatureAvgF,TemperatureLowF,DewpointHighF,DewpointAvgF,DewpointLowF,HumidityHigh,HumidityAvg,HumidityLow,PressureMaxIn,PressureMinIn,WindSpeedMaxMPH,WindSpeedAvgMPH,GustSpeedMaxMPH,PrecipitationSumIn
2013-6-1,72.0,53.5,35.0,46.0,34.3,27.0,85,53,18,0.00,40.00,4,1,7,0.00
2013-6-2,58.0,50.9,46.0,49.0,42.7,38.0,98,74,55,0.00,40.00,6,2,12,0.01
2013-6-3,64.0,53.2,45.0,46.0,44.0,39.0,100,74,40,0.00,40.00,9,3,17,0.01
2013-6-4,68.0,54.9,45.0,46.0,43.8,41.0,100,70,37,0.00,40.00,3,1,8,0.00
2013-6-5,79.0,59.6,40.0,49.0,41.6,38.0,93,57,25,0.00,40.00,3,1,8,0.00
2013-6-6,81.0,64.6,49.0,47.0,42.7,39.0,78,48,24,0.00,40.00,4,2,9,0.00
2013-6-7,79.0,65.4,52.0,55.0,46.3,42.0,76,53,29,0.00,40.00,9,4,20,0.00
2013-6-8,79.0,68.0,51.0,42.0,36.3,32.0,66,32,19,0.00,40.00,9,4,20,0.00
2013-6-9,81.0,65.6,46.0,46.0,38.0,27.0,82,42,14,0.00,40.00,10,3,22,0.00
2013-6-10,80.0,62.2,41.0,46.0,38.9,35.0,83,45,23,0.00,40.00,4,2,13,0.00
2013-6-11,81.0,62.1,48.0,47.0,42.2,39.0,73,49,26,0.00,40.00,7,2,18,0.00
2013-6-12,73.0,60.4,47.0,48.0,44.6,42.0,87,58,37,0.00,40.00,4,2,13,0.00
2013-6-13,61.0,52.1,45.0,51.0,46.5,41.0,99,82,56,0.00,40.00,5,2,11,0.02
2013-6-14,60.0,51.2,44.0,46.0,41.6,37.0,98,72,40,0.00,40.00,8,2,18,0.01
2013-6-15,78.0,57.1,37.0,43.0,37.1,28.0,98,55,16,0.00,40.00,3,1,11,0.00
2013-6-16,81.0,60.1,40.0,47.0,41.6,37.0,88,54,26,0.00,40.00,3,2,9,0.00
2013-6-17,86.0,66.7,45.0,50.0,44.0,37.0,88,49,17,0.00,40.00,3,2,7,0.00
2013-6-18,83.0,64.9,48.0,56.0,48.5,43.0,84,57,28,0.00,40.00,4,2,11,0.00
2013-6-19,63.0,55.5,51.0,52.0,49.0,44.0,100,79,59,0.00,40.00,6,2,11,0.02
2013-6-20,61.0,51.8,48.0,43.0,38.8,37.0,81,62,46,0.00,40.00,8,5,18,0.01
2013-6-21,69.0,67.0,65.0,41.0,39.6,37.0,39,36,34,0.00,40.00,2,2,10,0.00
2013-6-22,65.0,59.5,42.0,46.0,42.1,38.0,98,53,36,0.00,40.00,6,2,9,0.00
2013-6-23,75.0,58.3,38.0,52.0,42.1,37.0,94,60,26,0.00,40.00,3,1,6,0.00
2013-6-24,71.0,61.4,54.0,57.0,52.5,47.0,100,73,50,0.00,40.00,4,2,9,0.01
2013-6-25,72.0,61.1,54.0,57.0,51.9,45.0,100,74,37,0.00,40.00,4,2,10,0.01
2013-6-26,70.0,60.4,54.0,56.0,54.0,49.0,100,81,47,0.00,40.00,7,2,14,0.00
2013-6-27,87.0,67.1,51.0,61.0,53.5,47.0,100,68,28,0.00,40.00,2,1,8,0.00
2013-6-28,90.0,70.5,55.0,63.0,54.3,49.0,84,59,34,0.00,40.00,2,1,6,0.00
2013-6-29,87.0,70.2,56.0,63.0,57.0,53.0,88,65,37,0.00,40.00,5,2,10,0.00
2013-6-30,91.0,71.8,59.0,62.0,59.5,58.0,96,69,34,0.00,40.00,3,2,7,0.00